createdAt,value
2022-10-19T00:02:08.279Z,4.40
2022-10-19T00:04:34.750Z,3.90
2022-10-19T00:07:01.239Z,4.35
2022-10-19T00:09:27.743Z,3.40
2022-10-19T00:11:54.199Z,3.50
2022-10-19T00:14:23.081Z,3.35
2022-10-19T00:16:51.670Z,4.68
2022-10-19T00:19:21.504Z,3.90
2022-10-19T00:21:48.349Z,4.20
2022-10-19T00:24:16.513Z,3.42
2022-10-19T00:26:43.408Z,3.33
2022-10-19T00:29:11.993Z,3.50
2022-10-19T00:31:38.813Z,3.65
2022-10-19T00:34:05.415Z,3.20
2022-10-19T00:36:35.067Z,3.50
2022-10-19T00:39:04.327Z,3.78
2022-10-19T00:41:33.939Z,3.78
2022-10-19T00:44:02.234Z,4.03
2022-10-19T00:46:32.572Z,3.10
2022-10-19T00:49:04.009Z,3.58
2022-10-19T00:51:33.322Z,2.78
2022-10-19T00:54:02.638Z,2.47
2022-10-19T00:56:29.737Z,2.75
2022-10-19T00:58:57.323Z,2.95
2022-10-19T01:01:26.563Z,2.88
2022-10-19T01:03:53.003Z,3.38
2022-10-19T01:06:19.735Z,3.05
2022-10-19T01:08:46.413Z,3.13
2022-10-19T01:11:31.511Z,2.90
2022-10-19T01:14:31.922Z,2.53
2022-10-19T01:17:21.230Z,2.53
2022-10-19T01:20:25.253Z,2.05
2022-10-19T01:23:20.840Z,2.33
2022-10-19T01:26:04.056Z,1.80
2022-10-19T01:28:45.739Z,1.92
2022-10-19T01:31:32.065Z,2.00
2022-10-19T01:34:24.923Z,1.90
2022-10-19T01:37:35.858Z,1.83
2022-10-19T01:40:15.424Z,2.08
2022-10-19T01:42:50.643Z,2.55
2022-10-19T01:45:28.022Z,2.05
2022-10-19T01:48:01.645Z,2.05
2022-10-19T01:50:40.896Z,2.35
2022-10-19T01:53:10.258Z,2.10
2022-10-19T01:55:42.329Z,2.20
2022-10-19T01:58:12.214Z,2.28
2022-10-19T02:00:42.288Z,2.30
2022-10-19T02:03:10.088Z,2.38
2022-10-19T02:05:38.070Z,2.17
2022-10-19T02:08:10.700Z,2.90
2022-10-19T02:10:39.581Z,2.25
2022-10-19T02:13:07.747Z,2.67
2022-10-19T02:15:37.460Z,2.95
2022-10-19T02:18:07.269Z,2.20
2022-10-19T02:20:36.937Z,2.05
2022-10-19T02:23:05.698Z,1.88
2022-10-19T02:25:33.183Z,2.20
2022-10-19T02:28:02.207Z,2.28
2022-10-19T02:30:28.599Z,2.20
2022-10-19T02:32:55.056Z,1.80
2022-10-19T02:35:22.504Z,2.25
2022-10-19T02:37:49.329Z,2.05
2022-10-19T02:40:15.771Z,1.90
2022-10-19T02:42:47.967Z,2.60
2022-10-19T02:45:27.577Z,2.42
2022-10-19T02:48:11.146Z,1.88
2022-10-19T02:50:37.826Z,2.70
2022-10-19T02:53:04.270Z,2.28
2022-10-19T02:55:31.210Z,1.98
2022-10-19T02:57:57.897Z,1.73
2022-10-19T03:00:24.324Z,2.17
2022-10-19T03:02:50.736Z,2.20
2022-10-19T03:05:17.123Z,1.88
2022-10-19T03:07:43.659Z,1.80
2022-10-19T03:10:10.133Z,2.28
2022-10-19T03:12:36.606Z,1.98
2022-10-19T03:15:03.485Z,1.88
2022-10-19T03:17:30.026Z,1.70
2022-10-19T03:19:56.646Z,1.83
2022-10-19T03:22:23.076Z,1.50
2022-10-19T03:24:49.501Z,1.35
2022-10-19T03:27:16.172Z,1.30
2022-10-19T03:29:43.689Z,1.20
2022-10-19T03:32:10.135Z,1.67
2022-10-19T03:34:36.591Z,1.10
2022-10-19T03:37:03.163Z,1.30
2022-10-19T03:39:29.586Z,1.40
2022-10-19T03:41:56.029Z,1.40
2022-10-19T03:44:22.513Z,1.17
2022-10-19T03:46:48.969Z,1.30
2022-10-19T03:49:15.598Z,1.30
2022-10-19T03:51:42.005Z,1.48
2022-10-19T03:54:13.340Z,1.40
2022-10-19T03:56:41.041Z,1.10
2022-10-19T03:59:07.939Z,1.50
2022-10-19T04:01:37.183Z,1.30
2022-10-19T04:04:06.592Z,1.73
2022-10-19T04:06:36.314Z,1.50
2022-10-19T04:09:03.422Z,1.17
2022-10-19T04:11:30.992Z,1.55
2022-10-19T04:13:58.488Z,1.30
2022-10-19T04:16:26.636Z,1.30
2022-10-19T04:18:53.097Z,1.33
2022-10-19T04:21:23.649Z,1.38
2022-10-19T04:23:52.594Z,1.40
2022-10-19T04:26:20.474Z,1.42
2022-10-19T04:28:47.222Z,1.30
2022-10-19T04:31:13.783Z,1.35
2022-10-19T04:33:40.414Z,1.60
2022-10-19T04:36:10.704Z,1.40
2022-10-19T04:38:38.903Z,1.85
2022-10-19T04:41:10.442Z,1.75
2022-10-19T04:43:38.319Z,1.48
2022-10-19T04:46:10.201Z,1.35
2022-10-19T04:48:37.988Z,1.30
2022-10-19T04:51:05.430Z,1.50
2022-10-19T04:53:33.375Z,1.60
2022-10-19T04:56:00.033Z,1.38
2022-10-19T04:58:27.274Z,1.20
2022-10-19T05:00:53.942Z,1.60
2022-10-19T05:03:20.386Z,1.38
2022-10-19T05:05:46.827Z,1.35
2022-10-19T05:08:13.285Z,1.40
2022-10-19T05:10:41.209Z,1.10
2022-10-19T05:13:09.503Z,1.30
2022-10-19T05:15:37.209Z,1.13
2022-10-19T05:18:04.681Z,1.20
2022-10-19T05:20:31.104Z,1.08
2022-10-19T05:22:57.673Z,1.20
2022-10-19T05:25:24.275Z,1.20
2022-10-19T05:27:52.579Z,1.08
2022-10-19T05:30:21.724Z,1.50
2022-10-19T05:32:48.708Z,1.30
2022-10-19T05:35:17.509Z,1.05
2022-10-19T05:37:46.484Z,1.30
2022-10-19T05:40:12.938Z,1.30
2022-10-19T05:42:39.833Z,1.23
2022-10-19T05:45:06.612Z,1.20
2022-10-19T05:47:34.039Z,1.25
2022-10-19T05:50:00.642Z,1.10
2022-10-19T05:52:27.691Z,1.15
2022-10-19T05:54:54.100Z,1.20
2022-10-19T05:57:20.542Z,1.60
2022-10-19T05:59:47.183Z,1.70
2022-10-19T06:02:14.165Z,1.30
2022-10-19T06:04:40.646Z,1.95
2022-10-19T06:07:07.091Z,1.60
2022-10-19T06:09:36.208Z,1.48
2022-10-19T06:12:03.527Z,1.48
2022-10-19T06:14:29.950Z,1.25
2022-10-19T06:16:56.343Z,1.35
2022-10-19T06:19:22.756Z,0.98
2022-10-19T06:21:49.269Z,1.30
2022-10-19T06:24:15.678Z,1.30
2022-10-19T06:26:42.155Z,1.40
2022-10-19T06:29:09.738Z,1.52
2022-10-19T06:31:36.500Z,1.48
2022-10-19T06:34:03.067Z,1.15
2022-10-19T06:36:31.402Z,1.65
2022-10-19T06:38:59.643Z,1.20
2022-10-19T06:41:26.486Z,1.05
2022-10-19T06:43:54.271Z,1.20
2022-10-19T06:46:23.292Z,1.85
2022-10-19T06:48:51.435Z,1.35
2022-10-19T06:51:18.116Z,1.48
2022-10-19T06:53:46.914Z,1.42
2022-10-19T06:56:13.331Z,1.10
2022-10-19T06:58:40.257Z,1.25
2022-10-19T07:01:08.568Z,2.05
2022-10-19T07:03:36.071Z,1.52
2022-10-19T07:06:05.505Z,1.13
2022-10-19T07:08:32.889Z,1.30
2022-10-19T07:11:01.651Z,1.42
2022-10-19T07:13:29.356Z,1.55
2022-10-19T07:16:06.636Z,1.63
2022-10-19T07:18:35.030Z,1.63
2022-10-19T07:21:03.403Z,1.50
2022-10-19T07:23:31.684Z,1.25
2022-10-19T07:26:02.125Z,1.40
2022-10-19T07:28:30.120Z,1.58
2022-10-19T07:30:57.012Z,1.13
2022-10-19T07:33:23.764Z,1.10
2022-10-19T07:35:50.221Z,1.00
2022-10-19T07:38:16.832Z,1.10
2022-10-19T07:40:46.406Z,1.23
2022-10-19T07:43:14.353Z,1.20
2022-10-19T07:45:40.812Z,1.10
2022-10-19T07:48:07.247Z,1.10
2022-10-19T07:50:34.827Z,1.10
2022-10-19T07:53:03.357Z,1.13
2022-10-19T07:55:29.836Z,1.35
2022-10-19T07:57:56.236Z,1.40
2022-10-19T08:00:22.748Z,1.27
2022-10-19T08:02:57.780Z,1.30
2022-10-19T08:05:26.541Z,1.30
2022-10-19T08:07:52.983Z,1.52
2022-10-19T08:10:19.445Z,1.10
2022-10-19T08:12:45.876Z,1.48
2022-10-19T08:15:12.285Z,1.20
2022-10-19T08:17:39.682Z,1.23
2022-10-19T08:20:07.527Z,1.40
2022-10-19T08:22:34.372Z,1.10
2022-10-19T08:25:01.010Z,1.20
2022-10-19T08:27:27.573Z,1.73
2022-10-19T08:29:54.194Z,1.30
2022-10-19T08:32:21.383Z,1.10
2022-10-19T08:34:48.084Z,1.02
2022-10-19T08:37:25.670Z,1.10
2022-10-19T08:39:59.300Z,1.23
2022-10-19T08:42:36.007Z,0.98
2022-10-19T08:45:32.141Z,1.00
2022-10-19T08:48:10.246Z,1.42
2022-10-19T08:50:39.858Z,1.02
2022-10-19T08:53:24.486Z,1.40
2022-10-19T08:56:06.169Z,1.40
2022-10-19T08:58:51.897Z,1.38
2022-10-19T09:01:47.123Z,1.25
2022-10-19T09:04:21.542Z,1.13
2022-10-19T09:06:57.407Z,1.20
2022-10-19T09:09:25.266Z,1.30
2022-10-19T09:11:57.010Z,1.00
2022-10-19T09:14:47.193Z,1.52
2022-10-19T09:17:15.893Z,1.27
2022-10-19T09:19:42.475Z,1.23
2022-10-19T09:22:20.432Z,1.10
2022-10-19T09:24:52.287Z,1.30
2022-10-19T09:27:22.160Z,0.93
2022-10-19T09:29:57.374Z,1.00
2022-10-19T09:32:32.683Z,1.20
2022-10-19T09:35:02.524Z,1.17
2022-10-19T09:37:35.301Z,1.20
2022-10-19T09:40:01.764Z,0.90
2022-10-19T09:42:30.202Z,1.02
2022-10-19T09:44:59.663Z,1.00
2022-10-19T09:47:38.990Z,0.90
2022-10-19T09:50:17.601Z,0.85
2022-10-19T09:52:46.164Z,1.20
2022-10-19T09:55:15.711Z,1.00
2022-10-19T09:57:50.587Z,0.90
2022-10-19T10:00:19.363Z,1.38
2022-10-19T10:02:51.140Z,1.65
2022-10-19T10:05:18.114Z,0.90
2022-10-19T10:07:44.677Z,0.98
2022-10-19T10:10:26.844Z,0.85
2022-10-19T10:12:59.758Z,0.80
2022-10-19T10:15:40.986Z,1.17
2022-10-19T10:18:13.099Z,1.17
2022-10-19T10:21:03.102Z,0.70
2022-10-19T10:23:36.159Z,0.60
2022-10-19T10:26:04.213Z,0.50
2022-10-19T10:28:31.868Z,0.65
2022-10-19T10:31:10.456Z,0.50
2022-10-19T10:33:45.156Z,0.57
2022-10-19T10:36:12.627Z,0.50
2022-10-19T10:38:43.510Z,0.68
2022-10-19T10:43:49.675Z,1.00
2022-10-19T10:46:21.977Z,0.80
2022-10-19T10:49:06.985Z,0.98
2022-10-19T10:51:49.193Z,0.80
2022-10-19T10:54:31.293Z,0.57
2022-10-19T10:57:16.160Z,0.98
2022-10-19T11:00:24.843Z,1.10
2022-10-19T11:03:02.221Z,0.80
2022-10-19T11:05:32.108Z,0.70
2022-10-19T11:08:22.521Z,0.95
2022-10-19T11:10:55.558Z,0.80
2022-10-19T11:13:33.893Z,0.70
2022-10-19T11:16:06.592Z,1.10
2022-10-19T11:18:41.164Z,0.60
2022-10-19T11:21:12.576Z,0.60
2022-10-19T11:23:55.629Z,0.68
2022-10-19T11:26:41.015Z,1.00
2022-10-19T11:29:23.500Z,0.80
2022-10-19T11:31:53.854Z,0.80
2022-10-19T11:34:25.836Z,0.68
2022-10-19T11:37:06.113Z,0.98
2022-10-19T11:40:00.166Z,0.80
2022-10-19T11:42:54.340Z,1.20
2022-10-19T11:45:30.895Z,0.70
2022-10-19T11:48:43.812Z,0.60
2022-10-19T11:51:35.916Z,0.80
2022-10-19T11:54:17.716Z,0.80
2022-10-19T11:57:03.941Z,0.80
2022-10-19T12:00:13.627Z,0.73
2022-10-19T12:03:21.036Z,0.80
2022-10-19T12:06:09.427Z,0.70
2022-10-19T12:08:56.827Z,0.85
2022-10-19T12:11:48.580Z,0.90
2022-10-19T12:14:21.878Z,0.95
2022-10-19T12:16:53.448Z,1.08
2022-10-19T12:19:25.078Z,0.80
2022-10-19T12:21:54.921Z,1.00
2022-10-19T12:24:24.643Z,0.80
2022-10-19T12:26:53.031Z,0.60
2022-10-19T12:29:23.436Z,0.70
2022-10-19T12:31:50.882Z,0.95
2022-10-19T12:34:35.438Z,0.70
2022-10-19T12:37:34.621Z,0.60
2022-10-19T12:40:39.977Z,0.60
2022-10-19T12:43:14.781Z,0.70
2022-10-19T12:45:46.676Z,0.80
2022-10-19T12:48:13.288Z,0.80
2022-10-19T12:51:00.744Z,0.98
2022-10-19T12:53:35.960Z,0.82
2022-10-19T12:56:15.075Z,1.00
2022-10-19T12:58:47.435Z,0.90
2022-10-19T13:01:24.263Z,0.68
2022-10-19T13:04:06.763Z,1.10
2022-10-19T13:06:36.673Z,0.73
2022-10-19T13:09:06.500Z,0.82
2022-10-19T13:14:06.718Z,1.42
2022-10-19T13:16:40.628Z,0.82
2022-10-19T13:19:13.034Z,1.02
2022-10-19T13:21:46.878Z,1.10
2022-10-19T13:24:20.412Z,1.02
2022-10-19T13:26:46.898Z,1.00
2022-10-19T13:29:26.795Z,0.80
2022-10-19T13:31:53.496Z,0.80
2022-10-19T13:34:19.908Z,1.02
2022-10-19T13:37:03.535Z,0.98
2022-10-19T13:39:30.253Z,1.00
2022-10-19T13:41:57.235Z,0.93
2022-10-19T13:44:26.596Z,0.90
2022-10-19T13:47:14.572Z,1.10
2022-10-19T13:50:00.386Z,0.85
2022-10-19T13:52:32.854Z,0.80
2022-10-19T13:55:20.958Z,0.85
2022-10-19T13:58:19.680Z,1.10
2022-10-19T14:00:58.375Z,1.05
2022-10-19T14:03:53.712Z,0.90
2022-10-19T14:06:42.421Z,1.00
2022-10-19T14:09:36.890Z,1.33
2022-10-19T14:12:22.668Z,1.17
2022-10-19T14:14:51.924Z,0.90
2022-10-19T14:17:22.900Z,0.73
2022-10-19T14:22:26.187Z,0.93
2022-10-19T14:25:00.853Z,0.80
2022-10-19T14:27:27.543Z,0.77
2022-10-19T14:29:54.536Z,0.82
2022-10-19T14:32:30.303Z,0.90
2022-10-19T14:37:31.124Z,0.70
2022-10-19T14:40:04.087Z,0.80
2022-10-19T14:42:40.856Z,0.75
2022-10-19T14:45:21.239Z,0.93
2022-10-19T14:47:53.057Z,1.00
2022-10-19T14:50:24.062Z,1.67
2022-10-19T14:55:22.012Z,0.80
2022-10-19T14:57:52.097Z,1.30
2022-10-19T15:00:21.179Z,0.95
2022-10-19T15:03:04.030Z,0.90
2022-10-19T15:05:34.523Z,0.80
2022-10-19T15:08:17.767Z,0.90
2022-10-19T15:10:46.792Z,1.15
2022-10-19T15:13:28.496Z,1.38
2022-10-19T15:15:55.975Z,1.77
2022-10-19T15:18:47.706Z,2.03
2022-10-19T15:21:18.229Z,0.90
2022-10-19T15:23:47.080Z,1.45
2022-10-19T15:26:39.860Z,3.80
2022-10-19T15:29:19.227Z,2.92
2022-10-19T15:31:45.672Z,1.00
2022-10-19T15:34:28.411Z,0.90
2022-10-19T15:36:58.026Z,1.10
2022-10-19T15:39:38.752Z,0.90
2022-10-19T15:42:36.659Z,0.90
2022-10-19T15:45:24.647Z,0.85
2022-10-19T15:48:09.798Z,0.60
2022-10-19T15:50:41.977Z,0.80
2022-10-19T15:53:08.758Z,1.13
2022-10-19T15:55:35.542Z,0.93
2022-10-19T15:58:02.169Z,0.80
2022-10-19T16:00:30.063Z,1.08
2022-10-19T16:02:56.743Z,1.00
2022-10-19T16:05:26.304Z,0.90
2022-10-19T16:07:52.772Z,0.90
2022-10-19T16:10:22.872Z,1.00
2022-10-19T16:12:49.619Z,0.90
2022-10-19T16:15:22.284Z,0.93
2022-10-19T16:17:50.744Z,1.00
2022-10-19T16:20:17.788Z,1.10
2022-10-19T16:22:44.755Z,0.93
2022-10-19T16:25:11.803Z,1.00
2022-10-19T16:27:38.588Z,1.08
2022-10-19T16:30:06.362Z,1.00
2022-10-19T16:32:32.840Z,1.35
2022-10-19T16:34:59.267Z,1.10
2022-10-19T16:37:25.674Z,1.20
2022-10-19T16:39:52.062Z,1.02
2022-10-19T16:42:18.487Z,1.08
2022-10-19T16:44:44.914Z,1.00
2022-10-19T16:47:11.346Z,1.50
2022-10-19T16:49:37.798Z,1.00
2022-10-19T16:52:06.022Z,1.55
2022-10-19T16:54:32.801Z,1.40
2022-10-19T16:56:59.256Z,1.48
2022-10-19T16:59:25.699Z,1.08
2022-10-19T17:01:52.274Z,1.00
2022-10-19T17:04:18.767Z,1.00
2022-10-19T17:06:45.257Z,1.05
2022-10-19T17:09:40.242Z,1.27
2022-10-19T17:11:58.351Z,1.10
2022-10-19T17:14:24.781Z,1.30
2022-10-19T17:16:51.241Z,1.17
2022-10-19T17:19:17.650Z,1.10
2022-10-19T17:21:44.493Z,1.30
2022-10-19T17:24:21.089Z,1.17
2022-10-19T17:26:50.028Z,1.48
2022-10-19T17:29:16.488Z,1.20
2022-10-19T17:31:43.243Z,1.20
2022-10-19T17:34:10.015Z,1.20
2022-10-19T17:39:20.888Z,1.70
2022-10-19T17:41:51.594Z,1.33
2022-10-19T17:44:21.508Z,1.08
2022-10-19T17:46:48.090Z,1.83
2022-10-19T17:49:14.643Z,1.50
2022-10-19T17:51:41.319Z,1.55
2022-10-19T17:54:14.403Z,1.80
2022-10-19T17:56:44.765Z,1.30
2022-10-19T17:59:11.764Z,1.33
2022-10-19T18:01:38.530Z,1.85
2022-10-19T18:04:05.559Z,1.65
2022-10-19T18:06:35.300Z,1.60
2022-10-19T18:09:03.666Z,1.55
2022-10-19T18:11:34.559Z,3.33
2022-10-19T18:14:05.728Z,2.47
2022-10-19T18:16:37.946Z,2.58
2022-10-19T18:19:05.210Z,2.92
2022-10-19T18:21:34.883Z,2.55
2022-10-19T18:24:02.400Z,3.00
2022-10-19T18:26:30.978Z,4.00
2022-10-19T18:28:58.079Z,4.18
2022-10-19T18:31:29.189Z,6.20
2022-10-19T18:34:01.078Z,9.70
2022-10-19T18:36:29.107Z,10.85
2022-10-19T18:39:00.252Z,9.75
2022-10-19T18:41:27.676Z,7.22
2022-10-19T18:43:57.482Z,7.93
2022-10-19T18:46:25.160Z,7.95
2022-10-19T18:48:52.612Z,6.68
2022-10-19T18:51:20.290Z,4.78
2022-10-19T18:53:47.367Z,5.68
2022-10-19T18:56:16.375Z,5.15
2022-10-19T18:58:43.492Z,4.95
2022-10-19T19:01:12.946Z,4.82
2022-10-19T19:03:41.515Z,5.05
2022-10-19T19:06:11.196Z,4.18
2022-10-19T19:08:38.570Z,5.57
2022-10-19T19:11:23.002Z,7.65
2022-10-19T19:16:17.214Z,4.57
2022-10-19T19:18:44.138Z,4.50
2022-10-19T19:21:16.880Z,3.28
2022-10-19T19:23:43.984Z,2.92
2022-10-19T19:26:12.740Z,3.08
2022-10-19T19:28:41.597Z,2.60
2022-10-19T19:31:10.070Z,2.53
2022-10-19T19:33:36.588Z,2.72
2022-10-19T19:36:07.904Z,2.97
2022-10-19T19:38:36.624Z,2.47
2022-10-19T19:41:05.012Z,2.65
2022-10-19T19:43:32.996Z,2.75
2022-10-19T19:46:06.182Z,2.65
2022-10-19T19:48:36.136Z,2.53
2022-10-19T19:51:02.543Z,2.90
2022-10-19T19:53:28.991Z,2.92
2022-10-19T19:55:55.452Z,2.97
2022-10-19T19:58:21.912Z,3.25
2022-10-19T20:00:48.566Z,3.08
2022-10-19T20:03:16.798Z,2.45
2022-10-19T20:05:43.265Z,3.78
2022-10-19T20:08:10.193Z,5.03
2022-10-19T20:10:41.466Z,4.72
2022-10-19T20:13:08.141Z,5.22
2022-10-19T20:15:37.840Z,6.05
2022-10-19T20:18:04.717Z,5.88
2022-10-19T20:20:31.205Z,6.18
2022-10-19T20:22:57.646Z,6.75
2022-10-19T20:25:24.111Z,6.18
2022-10-19T20:27:50.531Z,5.90
2022-10-19T20:30:17.125Z,7.57
2022-10-19T20:32:43.788Z,7.78
2022-10-19T20:35:11.588Z,7.78
2022-10-19T20:37:38.082Z,7.45
2022-10-19T20:40:08.501Z,7.50
2022-10-19T20:42:35.834Z,7.20
2022-10-19T20:45:02.651Z,7.63
2022-10-19T20:47:29.390Z,6.75
2022-10-19T20:49:56.372Z,6.63
2022-10-19T20:52:22.983Z,5.72
2022-10-19T20:54:49.450Z,6.78
2022-10-19T20:57:15.883Z,7.82
2022-10-19T20:59:43.919Z,6.70
2022-10-19T21:02:11.367Z,6.72
2022-10-19T21:04:37.909Z,6.45
2022-10-19T21:07:05.017Z,6.30
2022-10-19T21:09:31.728Z,7.03
2022-10-19T21:11:58.200Z,7.07
2022-10-19T21:14:28.562Z,8.02
2022-10-19T21:16:58.245Z,8.70
2022-10-19T21:19:26.384Z,8.68
2022-10-19T21:21:55.615Z,8.30
2022-10-19T21:24:25.308Z,8.88
2022-10-19T21:29:23.488Z,7.32
2022-10-19T21:31:52.125Z,7.65
2022-10-19T21:34:24.350Z,6.22
2022-10-19T21:36:51.049Z,6.55
2022-10-19T21:39:18.294Z,6.40
2022-10-19T21:41:44.821Z,6.25
2022-10-19T21:44:11.332Z,6.57
2022-10-19T21:46:37.733Z,6.85
2022-10-19T21:49:04.404Z,6.43
2022-10-19T21:51:51.990Z,6.10
2022-10-19T21:54:20.934Z,6.30
2022-10-19T21:56:48.161Z,6.35
2022-10-19T21:59:15.313Z,6.97
2022-10-19T22:01:41.919Z,6.30
2022-10-19T22:04:17.164Z,6.28
2022-10-19T22:06:44.136Z,6.40
2022-10-19T22:09:13.804Z,6.40
2022-10-19T22:11:40.781Z,6.53
2022-10-19T22:14:07.587Z,6.93
2022-10-19T22:16:35.000Z,7.03
2022-10-19T22:19:01.445Z,5.72
2022-10-19T22:21:32.158Z,5.82
2022-10-19T22:24:01.230Z,6.30
2022-10-19T22:26:33.411Z,6.15
2022-10-19T22:29:01.715Z,6.05
2022-10-19T22:31:30.759Z,7.20
2022-10-19T22:33:57.283Z,6.38
2022-10-19T22:36:25.905Z,6.53
2022-10-19T22:38:52.346Z,6.07
2022-10-19T22:41:18.820Z,6.55
2022-10-19T22:43:46.454Z,5.95
2022-10-19T22:46:12.882Z,6.15
2022-10-19T22:48:39.287Z,4.78
2022-10-19T22:51:05.704Z,6.03
2022-10-19T22:53:32.828Z,6.20
2022-10-19T22:55:59.234Z,6.18
2022-10-19T22:58:25.700Z,5.75
2022-10-19T23:01:12.743Z,6.15
2022-10-19T23:03:40.312Z,5.55
2022-10-19T23:06:08.638Z,5.55
2022-10-19T23:08:35.270Z,5.80
2022-10-19T23:11:01.710Z,5.55
2022-10-19T23:13:28.239Z,5.75
2022-10-19T23:15:54.702Z,5.47
2022-10-19T23:18:21.492Z,5.30
2022-10-19T23:20:59.171Z,4.78
2022-10-19T23:23:25.929Z,5.03
2022-10-19T23:26:00.213Z,5.47
2022-10-19T23:28:26.921Z,5.38
2022-10-19T23:30:53.715Z,5.25
2022-10-19T23:33:20.170Z,5.57
2022-10-19T23:35:46.750Z,4.90
2022-10-19T23:38:13.180Z,5.22
2022-10-19T23:40:40.137Z,5.10
2022-10-19T23:43:06.580Z,5.60
2022-10-19T23:45:33.029Z,5.90
2022-10-19T23:47:59.415Z,4.70
2022-10-19T23:50:25.974Z,4.45
2022-10-19T23:52:52.380Z,5.30
2022-10-19T23:55:18.820Z,5.28
2022-10-19T23:57:45.373Z,5.35
